sensor_id;sensor_type;location;lat;lon;timestamp;P1;durP1;ratioP1;P2;durP2;ratioP2
6243;SDS011;3155;49.940;8.450;2023-08-06T00:00:21;525.03;;;274.55;;
6243;SDS011;3155;49.940;8.450;2023-08-06T00:02:49;520.35;;;279.17;;
6243;SDS011;3155;49.940;8.450;2023-08-06T00:05:16;509.13;;;257.55;;
6243;SDS011;3155;49.940;8.450;2023-08-06T00:07:55;501.00;;;244.63;;
6243;SDS011;3155;49.940;8.450;2023-08-06T00:10:22;498.52;;;248.05;;
6243;SDS011;3155;49.940;8.450;2023-08-06T00:12:49;498.80;;;249.50;;
6243;SDS011;3155;49.940;8.450;2023-08-06T00:15:17;503.02;;;257.77;;
6243;SDS011;3155;49.940;8.450;2023-08-06T00:17:44;503.65;;;250.90;;
6243;SDS011;3155;49.940;8.450;2023-08-06T00:20:11;506.30;;;257.50;;
6243;SDS011;3155;49.940;8.450;2023-08-06T00:22:40;511.73;;;270.38;;
6243;SDS011;3155;49.940;8.450;2023-08-06T00:25:08;513.28;;;271.10;;
6243;SDS011;3155;49.940;8.450;2023-08-06T00:27:35;510.50;;;260.40;;
6243;SDS011;3155;49.940;8.450;2023-08-06T00:30:03;514.90;;;270.25;;
6243;SDS011;3155;49.940;8.450;2023-08-06T00:32:31;524.25;;;283.27;;
6243;SDS011;3155;49.940;8.450;2023-08-06T00:34:58;537.50;;;297.73;;
6243;SDS011;3155;49.940;8.450;2023-08-06T00:37:29;546.67;;;312.13;;
6243;SDS011;3155;49.940;8.450;2023-08-06T00:39:56;552.73;;;318.00;;
6243;SDS011;3155;49.940;8.450;2023-08-06T00:42:23;564.65;;;329.00;;
6243;SDS011;3155;49.940;8.450;2023-08-06T00:44:50;564.35;;;326.60;;
6243;SDS011;3155;49.940;8.450;2023-08-06T00:47:19;564.75;;;330.80;;
6243;SDS011;3155;49.940;8.450;2023-08-06T00:49:46;560.75;;;317.52;;
6243;SDS011;3155;49.940;8.450;2023-08-06T00:52:13;560.25;;;319.13;;
6243;SDS011;3155;49.940;8.450;2023-08-06T00:54:41;556.03;;;308.48;;
6243;SDS011;3155;49.940;8.450;2023-08-06T00:57:08;555.17;;;319.10;;
6243;SDS011;3155;49.940;8.450;2023-08-06T00:59:36;555.72;;;323.90;;
6243;SDS011;3155;49.940;8.450;2023-08-06T01:02:07;552.70;;;320.23;;
6243;SDS011;3155;49.940;8.450;2023-08-06T01:04:34;551.08;;;312.10;;
6243;SDS011;3155;49.940;8.450;2023-08-06T01:07:48;549.85;;;301.35;;
6243;SDS011;3155;49.940;8.450;2023-08-06T01:15:15;552.40;;;315.15;;
6243;SDS011;3155;49.940;8.450;2023-08-06T01:17:45;553.65;;;326.33;;
6243;SDS011;3155;49.940;8.450;2023-08-06T01:20:12;546.92;;;316.25;;
6243;SDS011;3155;49.940;8.450;2023-08-06T01:22:39;543.00;;;312.05;;
6243;SDS011;3155;49.940;8.450;2023-08-06T01:25:06;549.53;;;324.38;;
6243;SDS011;3155;49.940;8.450;2023-08-06T01:27:48;548.35;;;318.73;;
6243;SDS011;3155;49.940;8.450;2023-08-06T01:30:17;556.47;;;331.60;;
6243;SDS011;3155;49.940;8.450;2023-08-06T01:32:48;563.92;;;340.02;;
6243;SDS011;3155;49.940;8.450;2023-08-06T01:35:17;574.05;;;339.10;;
6243;SDS011;3155;49.940;8.450;2023-08-06T01:37:46;578.50;;;359.45;;
6243;SDS011;3155;49.940;8.450;2023-08-06T01:40:14;592.33;;;372.73;;
6243;SDS011;3155;49.940;8.450;2023-08-06T01:42:41;599.70;;;386.70;;
6243;SDS011;3155;49.940;8.450;2023-08-06T01:45:08;602.33;;;390.52;;
6243;SDS011;3155;49.940;8.450;2023-08-06T01:47:36;614.33;;;412.57;;
6243;SDS011;3155;49.940;8.450;2023-08-06T01:50:03;617.72;;;413.80;;
6243;SDS011;3155;49.940;8.450;2023-08-06T01:52:31;617.13;;;400.13;;
6243;SDS011;3155;49.940;8.450;2023-08-06T01:54:58;625.83;;;413.47;;
6243;SDS011;3155;49.940;8.450;2023-08-06T01:57:25;636.47;;;428.52;;
6243;SDS011;3155;49.940;8.450;2023-08-06T01:59:52;644.40;;;433.35;;
6243;SDS011;3155;49.940;8.450;2023-08-06T02:02:19;641.03;;;435.50;;
6243;SDS011;3155;49.940;8.450;2023-08-06T02:04:49;642.63;;;430.35;;
6243;SDS011;3155;49.940;8.450;2023-08-06T02:07:16;646.10;;;434.45;;
6243;SDS011;3155;49.940;8.450;2023-08-06T02:09:43;643.40;;;431.58;;
6243;SDS011;3155;49.940;8.450;2023-08-06T02:12:10;656.17;;;440.40;;
6243;SDS011;3155;49.940;8.450;2023-08-06T02:14:38;647.97;;;436.88;;
6243;SDS011;3155;49.940;8.450;2023-08-06T02:17:05;650.83;;;429.13;;
6243;SDS011;3155;49.940;8.450;2023-08-06T02:19:32;644.00;;;435.80;;
6243;SDS011;3155;49.940;8.450;2023-08-06T02:22:05;644.85;;;439.08;;
6243;SDS011;3155;49.940;8.450;2023-08-06T02:24:32;641.15;;;439.45;;
6243;SDS011;3155;49.940;8.450;2023-08-06T02:26:59;644.15;;;439.83;;
6243;SDS011;3155;49.940;8.450;2023-08-06T02:29:27;645.83;;;445.00;;
6243;SDS011;3155;49.940;8.450;2023-08-06T02:32:04;661.03;;;459.90;;
6243;SDS011;3155;49.940;8.450;2023-08-06T02:34:31;666.75;;;460.02;;
6243;SDS011;3155;49.940;8.450;2023-08-06T02:36:59;669.17;;;466.92;;
6243;SDS011;3155;49.940;8.450;2023-08-06T02:39:26;660.38;;;459.33;;
6243;SDS011;3155;49.940;8.450;2023-08-06T02:41:57;660.95;;;412.10;;
6243;SDS011;3155;49.940;8.450;2023-08-06T02:44:27;680.50;;;446.67;;
6243;SDS011;3155;49.940;8.450;2023-08-06T02:46:54;679.33;;;427.92;;
6243;SDS011;3155;49.940;8.450;2023-08-06T02:49:23;686.80;;;448.88;;
6243;SDS011;3155;49.940;8.450;2023-08-06T02:51:51;688.28;;;452.13;;
6243;SDS011;3155;49.940;8.450;2023-08-06T02:54:19;690.35;;;453.17;;
6243;SDS011;3155;49.940;8.450;2023-08-06T02:56:46;690.08;;;473.02;;
6243;SDS011;3155;49.940;8.450;2023-08-06T02:59:13;692.83;;;472.10;;
6243;SDS011;3155;49.940;8.450;2023-08-06T03:01:40;693.83;;;472.60;;
6243;SDS011;3155;49.940;8.450;2023-08-06T03:04:10;691.08;;;459.15;;
6243;SDS011;3155;49.940;8.450;2023-08-06T03:06:38;691.95;;;472.48;;
6243;SDS011;3155;49.940;8.450;2023-08-06T03:09:05;685.40;;;449.88;;
6243;SDS011;3155;49.940;8.450;2023-08-06T03:11:32;684.45;;;455.50;;
6243;SDS011;3155;49.940;8.450;2023-08-06T03:14:08;691.85;;;449.60;;
6243;SDS011;3155;49.940;8.450;2023-08-06T03:16:38;695.60;;;457.92;;
6243;SDS011;3155;49.940;8.450;2023-08-06T03:19:05;694.03;;;455.65;;
6243;SDS011;3155;49.940;8.450;2023-08-06T03:21:32;693.78;;;460.65;;
6243;SDS011;3155;49.940;8.450;2023-08-06T03:24:00;699.80;;;474.30;;
6243;SDS011;3155;49.940;8.450;2023-08-06T03:26:27;693.05;;;454.67;;
6243;SDS011;3155;49.940;8.450;2023-08-06T03:28:54;684.80;;;459.52;;
6243;SDS011;3155;49.940;8.450;2023-08-06T03:31:24;679.00;;;448.83;;
6243;SDS011;3155;49.940;8.450;2023-08-06T03:33:51;672.67;;;451.05;;
6243;SDS011;3155;49.940;8.450;2023-08-06T03:36:18;682.50;;;445.08;;
6243;SDS011;3155;49.940;8.450;2023-08-06T03:38:45;685.25;;;435.40;;
6243;SDS011;3155;49.940;8.450;2023-08-06T03:41:12;691.38;;;447.83;;
6243;SDS011;3155;49.940;8.450;2023-08-06T03:43:42;689.30;;;441.58;;
6243;SDS011;3155;49.940;8.450;2023-08-06T03:46:09;689.25;;;452.63;;
6243;SDS011;3155;49.940;8.450;2023-08-06T03:48:39;692.83;;;455.33;;
6243;SDS011;3155;49.940;8.450;2023-08-06T03:51:10;692.28;;;455.92;;
6243;SDS011;3155;49.940;8.450;2023-08-06T03:53:37;700.17;;;481.77;;
6243;SDS011;3155;49.940;8.450;2023-08-06T03:56:04;705.03;;;482.63;;
6243;SDS011;3155;49.940;8.450;2023-08-06T03:58:31;705.20;;;482.10;;
6243;SDS011;3155;49.940;8.450;2023-08-06T04:01:02;706.55;;;496.08;;
6243;SDS011;3155;49.940;8.450;2023-08-06T04:03:30;695.33;;;469.10;;
6243;SDS011;3155;49.940;8.450;2023-08-06T04:05:57;699.45;;;477.05;;
6243;SDS011;3155;49.940;8.450;2023-08-06T04:08:24;696.13;;;469.42;;
6243;SDS011;3155;49.940;8.450;2023-08-06T04:10:52;702.87;;;478.57;;
6243;SDS011;3155;49.940;8.450;2023-08-06T04:13:19;704.28;;;480.73;;
6243;SDS011;3155;49.940;8.450;2023-08-06T04:15:47;712.92;;;494.95;;
6243;SDS011;3155;49.940;8.450;2023-08-06T04:18:14;715.35;;;498.33;;
6243;SDS011;3155;49.940;8.450;2023-08-06T04:20:47;718.63;;;504.30;;
6243;SDS011;3155;49.940;8.450;2023-08-06T04:23:17;721.42;;;509.50;;
6243;SDS011;3155;49.940;8.450;2023-08-06T04:25:44;715.20;;;497.75;;
6243;SDS011;3155;49.940;8.450;2023-08-06T04:28:12;705.13;;;493.40;;
6243;SDS011;3155;49.940;8.450;2023-08-06T04:30:39;705.88;;;479.02;;
6243;SDS011;3155;49.940;8.450;2023-08-06T04:33:06;697.60;;;471.70;;
6243;SDS011;3155;49.940;8.450;2023-08-06T04:35:33;676.47;;;407.17;;
6243;SDS011;3155;49.940;8.450;2023-08-06T04:38:00;703.53;;;451.33;;
6243;SDS011;3155;49.940;8.450;2023-08-06T04:40:28;622.35;;;466.52;;
6243;SDS011;3155;49.940;8.450;2023-08-06T04:42:55;639.85;;;383.75;;
6243;SDS011;3155;49.940;8.450;2023-08-06T04:45:22;623.80;;;362.92;;
6243;SDS011;3155;49.940;8.450;2023-08-06T04:47:50;608.15;;;346.05;;
6243;SDS011;3155;49.940;8.450;2023-08-06T04:50:19;596.67;;;333.52;;
6243;SDS011;3155;49.940;8.450;2023-08-06T04:52:46;583.20;;;317.77;;
6243;SDS011;3155;49.940;8.450;2023-08-06T04:55:13;570.70;;;292.38;;
6243;SDS011;3155;49.940;8.450;2023-08-06T04:57:40;574.38;;;302.92;;
6243;SDS011;3155;49.940;8.450;2023-08-06T05:00:08;575.23;;;306.13;;
6243;SDS011;3155;49.940;8.450;2023-08-06T05:02:35;536.95;;;267.75;;
6243;SDS011;3155;49.940;8.450;2023-08-06T05:05:04;530.83;;;264.30;;
6243;SDS011;3155;49.940;8.450;2023-08-06T05:07:32;527.65;;;261.80;;
6243;SDS011;3155;49.940;8.450;2023-08-06T05:09:59;513.75;;;241.05;;
6243;SDS011;3155;49.940;8.450;2023-08-06T05:12:26;522.33;;;252.93;;
6243;SDS011;3155;49.940;8.450;2023-08-06T05:14:53;528.22;;;261.33;;
6243;SDS011;3155;49.940;8.450;2023-08-06T05:17:20;526.10;;;256.98;;
6243;SDS011;3155;49.940;8.450;2023-08-06T05:19:49;528.80;;;264.60;;
6243;SDS011;3155;49.940;8.450;2023-08-06T05:22:17;532.47;;;271.88;;
6243;SDS011;3155;49.940;8.450;2023-08-06T05:24:44;540.92;;;277.48;;
6243;SDS011;3155;49.940;8.450;2023-08-06T05:27:14;538.50;;;272.67;;
6243;SDS011;3155;49.940;8.450;2023-08-06T05:29:41;547.45;;;290.15;;
6243;SDS011;3155;49.940;8.450;2023-08-06T05:32:08;540.53;;;272.88;;
6243;SDS011;3155;49.940;8.450;2023-08-06T05:34:36;535.83;;;271.07;;
6243;SDS011;3155;49.940;8.450;2023-08-06T05:37:07;545.95;;;290.00;;
6243;SDS011;3155;49.940;8.450;2023-08-06T05:39:35;551.42;;;298.30;;
6243;SDS011;3155;49.940;8.450;2023-08-06T05:42:02;554.05;;;305.15;;
6243;SDS011;3155;49.940;8.450;2023-08-06T05:44:30;558.53;;;304.25;;
6243;SDS011;3155;49.940;8.450;2023-08-06T05:46:57;564.50;;;313.08;;
6243;SDS011;3155;49.940;8.450;2023-08-06T05:49:24;568.38;;;314.98;;
6243;SDS011;3155;49.940;8.450;2023-08-06T05:51:51;576.50;;;334.60;;
6243;SDS011;3155;49.940;8.450;2023-08-06T05:54:20;572.78;;;311.08;;
6243;SDS011;3155;49.940;8.450;2023-08-06T05:56:47;584.47;;;331.88;;
6243;SDS011;3155;49.940;8.450;2023-08-06T05:59:14;613.00;;;349.48;;
6243;SDS011;3155;49.940;8.450;2023-08-06T06:01:41;624.03;;;362.08;;
6243;SDS011;3155;49.940;8.450;2023-08-06T06:04:09;633.72;;;373.35;;
6243;SDS011;3155;49.940;8.450;2023-08-06T06:06:36;633.42;;;369.08;;
6243;SDS011;3155;49.940;8.450;2023-08-06T06:09:03;633.92;;;363.00;;
6243;SDS011;3155;49.940;8.450;2023-08-06T06:11:30;628.25;;;347.13;;
6243;SDS011;3155;49.940;8.450;2023-08-06T06:14:00;604.47;;;325.63;;
6243;SDS011;3155;49.940;8.450;2023-08-06T06:16:28;606.85;;;311.00;;
6243;SDS011;3155;49.940;8.450;2023-08-06T06:18:55;597.13;;;308.15;;
6243;SDS011;3155;49.940;8.450;2023-08-06T06:21:23;600.67;;;312.67;;
6243;SDS011;3155;49.940;8.450;2023-08-06T06:23:51;603.65;;;331.90;;
6243;SDS011;3155;49.940;8.450;2023-08-06T06:26:31;612.17;;;335.25;;
6243;SDS011;3155;49.940;8.450;2023-08-06T06:28:59;621.33;;;323.45;;
6243;SDS011;3155;49.940;8.450;2023-08-06T06:31:31;609.83;;;318.23;;
6243;SDS011;3155;49.940;8.450;2023-08-06T06:33:58;628.80;;;329.17;;
6243;SDS011;3155;49.940;8.450;2023-08-06T06:36:28;634.72;;;345.20;;
6243;SDS011;3155;49.940;8.450;2023-08-06T06:38:55;644.80;;;362.08;;
6243;SDS011;3155;49.940;8.450;2023-08-06T06:41:23;632.20;;;336.95;;
6243;SDS011;3155;49.940;8.450;2023-08-06T06:43:50;645.10;;;369.77;;
6243;SDS011;3155;49.940;8.450;2023-08-06T06:46:17;648.20;;;361.43;;
6243;SDS011;3155;49.940;8.450;2023-08-06T06:48:44;644.65;;;336.70;;
6243;SDS011;3155;49.940;8.450;2023-08-06T06:51:11;642.23;;;362.23;;
6243;SDS011;3155;49.940;8.450;2023-08-06T06:53:39;646.10;;;366.15;;
6243;SDS011;3155;49.940;8.450;2023-08-06T06:56:06;635.40;;;345.55;;
6243;SDS011;3155;49.940;8.450;2023-08-06T06:58:33;633.73;;;343.70;;
6243;SDS011;3155;49.940;8.450;2023-08-06T07:01:01;634.40;;;354.17;;
6243;SDS011;3155;49.940;8.450;2023-08-06T07:03:29;618.10;;;336.30;;
6243;SDS011;3155;49.940;8.450;2023-08-06T07:05:57;618.35;;;345.83;;
6243;SDS011;3155;49.940;8.450;2023-08-06T07:08:27;579.97;;;300.90;;
6243;SDS011;3155;49.940;8.450;2023-08-06T07:11:03;606.25;;;336.13;;
6243;SDS011;3155;49.940;8.450;2023-08-06T07:13:31;605.42;;;333.30;;
6243;SDS011;3155;49.940;8.450;2023-08-06T07:15:58;594.47;;;319.90;;
6243;SDS011;3155;49.940;8.450;2023-08-06T07:18:26;562.67;;;279.60;;
6243;SDS011;3155;49.940;8.450;2023-08-06T07:20:54;584.83;;;315.48;;
6243;SDS011;3155;49.940;8.450;2023-08-06T07:23:22;559.47;;;284.75;;
6243;SDS011;3155;49.940;8.450;2023-08-06T07:25:52;558.35;;;278.08;;
6243;SDS011;3155;49.940;8.450;2023-08-06T07:28:19;590.78;;;310.55;;
6243;SDS011;3155;49.940;8.450;2023-08-06T07:30:47;589.27;;;305.47;;
6243;SDS011;3155;49.940;8.450;2023-08-06T07:33:14;594.20;;;316.73;;
6243;SDS011;3155;49.940;8.450;2023-08-06T07:35:42;594.78;;;308.80;;
6243;SDS011;3155;49.940;8.450;2023-08-06T07:38:09;608.15;;;335.92;;
6243;SDS011;3155;49.940;8.450;2023-08-06T07:40:37;614.78;;;343.20;;
6243;SDS011;3155;49.940;8.450;2023-08-06T07:43:07;629.63;;;361.10;;
6243;SDS011;3155;49.940;8.450;2023-08-06T07:45:34;610.63;;;327.77;;
6243;SDS011;3155;49.940;8.450;2023-08-06T07:48:02;592.42;;;310.42;;
6243;SDS011;3155;49.940;8.450;2023-08-06T07:50:30;596.20;;;313.08;;
6243;SDS011;3155;49.940;8.450;2023-08-06T07:52:57;594.85;;;306.52;;
6243;SDS011;3155;49.940;8.450;2023-08-06T07:55:27;618.20;;;331.75;;
6243;SDS011;3155;49.940;8.450;2023-08-06T07:57:54;647.17;;;367.65;;
6243;SDS011;3155;49.940;8.450;2023-08-06T08:00:22;711.00;;;459.90;;
6243;SDS011;3155;49.940;8.450;2023-08-06T08:02:50;742.40;;;491.38;;
6243;SDS011;3155;49.940;8.450;2023-08-06T08:05:17;784.20;;;536.03;;
6243;SDS011;3155;49.940;8.450;2023-08-06T08:07:44;813.58;;;569.10;;
6243;SDS011;3155;49.940;8.450;2023-08-06T08:10:12;812.63;;;558.17;;
6243;SDS011;3155;49.940;8.450;2023-08-06T08:12:39;827.35;;;566.40;;
6243;SDS011;3155;49.940;8.450;2023-08-06T08:15:06;850.92;;;599.60;;
6243;SDS011;3155;49.940;8.450;2023-08-06T08:17:33;863.35;;;605.13;;
6243;SDS011;3155;49.940;8.450;2023-08-06T08:20:01;869.05;;;616.78;;
6243;SDS011;3155;49.940;8.450;2023-08-06T08:22:29;865.75;;;609.58;;
6243;SDS011;3155;49.940;8.450;2023-08-06T08:24:56;847.37;;;590.83;;
6243;SDS011;3155;49.940;8.450;2023-08-06T08:27:23;907.72;;;668.10;;
6243;SDS011;3155;49.940;8.450;2023-08-06T08:29:50;936.65;;;705.58;;
6243;SDS011;3155;49.940;8.450;2023-08-06T08:32:17;942.20;;;719.63;;
6243;SDS011;3155;49.940;8.450;2023-08-06T08:34:45;953.38;;;736.53;;
6243;SDS011;3155;49.940;8.450;2023-08-06T08:37:12;958.50;;;746.43;;
6243;SDS011;3155;49.940;8.450;2023-08-06T08:39:42;953.47;;;741.93;;
6243;SDS011;3155;49.940;8.450;2023-08-06T08:42:21;955.77;;;744.53;;
6243;SDS011;3155;49.940;8.450;2023-08-06T08:44:48;951.78;;;741.45;;
6243;SDS011;3155;49.940;8.450;2023-08-06T08:47:15;955.50;;;749.20;;
6243;SDS011;3155;49.940;8.450;2023-08-06T08:49:46;948.08;;;744.85;;
6243;SDS011;3155;49.940;8.450;2023-08-06T08:52:14;930.72;;;715.00;;
6243;SDS011;3155;49.940;8.450;2023-08-06T08:54:42;932.90;;;720.03;;
6243;SDS011;3155;49.940;8.450;2023-08-06T08:57:10;938.90;;;728.70;;
6243;SDS011;3155;49.940;8.450;2023-08-06T08:59:37;947.15;;;742.70;;
6243;SDS011;3155;49.940;8.450;2023-08-06T09:02:04;964.55;;;765.05;;
6243;SDS011;3155;49.940;8.450;2023-08-06T09:04:34;958.40;;;764.92;;
6243;SDS011;3155;49.940;8.450;2023-08-06T09:07:02;959.50;;;764.75;;
6243;SDS011;3155;49.940;8.450;2023-08-06T09:09:31;956.67;;;754.05;;
6243;SDS011;3155;49.940;8.450;2023-08-06T09:12:00;943.08;;;724.75;;
6243;SDS011;3155;49.940;8.450;2023-08-06T09:14:28;942.28;;;715.85;;
6243;SDS011;3155;49.940;8.450;2023-08-06T09:16:56;936.43;;;698.90;;
6243;SDS011;3155;49.940;8.450;2023-08-06T09:19:24;927.85;;;687.83;;
6243;SDS011;3155;49.940;8.450;2023-08-06T09:21:55;932.95;;;688.70;;
6243;SDS011;3155;49.940;8.450;2023-08-06T09:24:23;936.30;;;696.53;;
6243;SDS011;3155;49.940;8.450;2023-08-06T09:26:50;933.55;;;695.20;;
6243;SDS011;3155;49.940;8.450;2023-08-06T09:29:17;939.83;;;701.97;;
6243;SDS011;3155;49.940;8.450;2023-08-06T09:31:45;923.13;;;677.42;;
6243;SDS011;3155;49.940;8.450;2023-08-06T09:34:16;916.25;;;667.95;;
6243;SDS011;3155;49.940;8.450;2023-08-06T09:36:47;912.92;;;664.60;;
6243;SDS011;3155;49.940;8.450;2023-08-06T09:39:15;908.65;;;657.47;;
6243;SDS011;3155;49.940;8.450;2023-08-06T09:41:43;914.60;;;661.75;;
6243;SDS011;3155;49.940;8.450;2023-08-06T09:44:18;877.35;;;621.63;;
6243;SDS011;3155;49.940;8.450;2023-08-06T09:46:51;899.63;;;649.17;;
6243;SDS011;3155;49.940;8.450;2023-08-06T09:49:19;862.60;;;607.38;;
6243;SDS011;3155;49.940;8.450;2023-08-06T09:51:49;874.72;;;615.95;;
6243;SDS011;3155;49.940;8.450;2023-08-06T09:54:22;883.33;;;630.55;;
6243;SDS011;3155;49.940;8.450;2023-08-06T09:56:53;897.20;;;650.60;;
6243;SDS011;3155;49.940;8.450;2023-08-06T09:59:22;928.17;;;687.35;;
6243;SDS011;3155;49.940;8.450;2023-08-06T10:01:50;911.15;;;671.38;;
6243;SDS011;3155;49.940;8.450;2023-08-06T10:04:19;873.80;;;627.83;;
6243;SDS011;3155;49.940;8.450;2023-08-06T10:06:51;931.38;;;692.20;;
6243;SDS011;3155;49.940;8.450;2023-08-06T10:09:19;931.33;;;696.35;;
6243;SDS011;3155;49.940;8.450;2023-08-06T10:11:50;935.70;;;698.70;;
6243;SDS011;3155;49.940;8.450;2023-08-06T10:14:33;928.33;;;688.90;;
6243;SDS011;3155;49.940;8.450;2023-08-06T10:17:02;939.67;;;706.58;;
6243;SDS011;3155;49.940;8.450;2023-08-06T10:19:32;958.13;;;734.58;;
6243;SDS011;3155;49.940;8.450;2023-08-06T10:22:13;977.13;;;767.28;;
6243;SDS011;3155;49.940;8.450;2023-08-06T10:24:47;953.35;;;749.40;;
6243;SDS011;3155;49.940;8.450;2023-08-06T10:27:31;959.30;;;756.37;;
6243;SDS011;3155;49.940;8.450;2023-08-06T10:32:48;987.40;;;798.80;;
6243;SDS011;3155;49.940;8.450;2023-08-06T10:40:39;1003.80;;;838.67;;
6243;SDS011;3155;49.940;8.450;2023-08-06T10:43:11;987.05;;;818.20;;
6243;SDS011;3155;49.940;8.450;2023-08-06T10:45:51;997.78;;;833.22;;
6243;SDS011;3155;49.940;8.450;2023-08-06T10:48:38;999.27;;;839.03;;
6243;SDS011;3155;49.940;8.450;2023-08-06T10:51:07;1014.63;;;864.53;;
6243;SDS011;3155;49.940;8.450;2023-08-06T10:53:34;1022.50;;;882.65;;
6243;SDS011;3155;49.940;8.450;2023-08-06T10:56:02;1022.63;;;878.25;;
6243;SDS011;3155;49.940;8.450;2023-08-06T10:58:39;1022.05;;;876.05;;
6243;SDS011;3155;49.940;8.450;2023-08-06T11:01:06;1018.90;;;876.38;;
6243;SDS011;3155;49.940;8.450;2023-08-06T11:03:34;1015.72;;;862.22;;
6243;SDS011;3155;49.940;8.450;2023-08-06T11:06:01;997.10;;;837.72;;
6243;SDS011;3155;49.940;8.450;2023-08-06T11:08:32;981.35;;;790.83;;
6243;SDS011;3155;49.940;8.450;2023-08-06T11:11:13;969.53;;;767.50;;
6243;SDS011;3155;49.940;8.450;2023-08-06T11:13:40;965.80;;;748.53;;
6243;SDS011;3155;49.940;8.450;2023-08-06T11:16:11;967.73;;;740.03;;
6243;SDS011;3155;49.940;8.450;2023-08-06T11:18:41;942.83;;;702.85;;
6243;SDS011;3155;49.940;8.450;2023-08-06T11:21:09;928.80;;;685.60;;
6243;SDS011;3155;49.940;8.450;2023-08-06T11:23:38;915.17;;;664.73;;
6243;SDS011;3155;49.940;8.450;2023-08-06T11:26:05;878.85;;;617.15;;
6243;SDS011;3155;49.940;8.450;2023-08-06T11:28:32;883.03;;;615.72;;
6243;SDS011;3155;49.940;8.450;2023-08-06T11:30:59;875.67;;;613.80;;
6243;SDS011;3155;49.940;8.450;2023-08-06T11:33:28;899.80;;;643.70;;
6243;SDS011;3155;49.940;8.450;2023-08-06T11:35:56;899.93;;;642.33;;
6243;SDS011;3155;49.940;8.450;2023-08-06T11:38:28;901.75;;;645.00;;
6243;SDS011;3155;49.940;8.450;2023-08-06T11:40:58;902.77;;;646.10;;
6243;SDS011;3155;49.940;8.450;2023-08-06T11:43:30;879.33;;;616.13;;
6243;SDS011;3155;49.940;8.450;2023-08-06T11:45:57;899.90;;;652.10;;
6243;SDS011;3155;49.940;8.450;2023-08-06T11:48:26;891.55;;;632.97;;
6243;SDS011;3155;49.940;8.450;2023-08-06T11:51:00;888.42;;;611.70;;
6243;SDS011;3155;49.940;8.450;2023-08-06T11:53:27;869.65;;;582.97;;
6243;SDS011;3155;49.940;8.450;2023-08-06T11:55:55;866.33;;;578.97;;
6243;SDS011;3155;49.940;8.450;2023-08-06T11:58:22;863.25;;;574.83;;
6243;SDS011;3155;49.940;8.450;2023-08-06T12:00:50;860.28;;;560.70;;
6243;SDS011;3155;49.940;8.450;2023-08-06T12:03:19;876.17;;;592.13;;
6243;SDS011;3155;49.940;8.450;2023-08-06T12:05:47;867.17;;;565.30;;
6243;SDS011;3155;49.940;8.450;2023-08-06T12:08:14;889.08;;;597.50;;
6243;SDS011;3155;49.940;8.450;2023-08-06T12:10:41;893.93;;;613.40;;
6243;SDS011;3155;49.940;8.450;2023-08-06T12:13:15;883.50;;;605.57;;
6243;SDS011;3155;49.940;8.450;2023-08-06T12:15:42;899.75;;;619.45;;
6243;SDS011;3155;49.940;8.450;2023-08-06T12:18:09;887.75;;;606.85;;
6243;SDS011;3155;49.940;8.450;2023-08-06T12:20:37;943.87;;;676.47;;
6243;SDS011;3155;49.940;8.450;2023-08-06T12:23:04;959.38;;;693.67;;
6243;SDS011;3155;49.940;8.450;2023-08-06T12:25:32;965.13;;;695.53;;
6243;SDS011;3155;49.940;8.450;2023-08-06T12:27:59;961.13;;;711.83;;
6243;SDS011;3155;49.940;8.450;2023-08-06T12:30:26;848.58;;;753.55;;
6243;SDS011;3155;49.940;8.450;2023-08-06T12:32:53;916.15;;;705.17;;
6243;SDS011;3155;49.940;8.450;2023-08-06T12:35:21;956.28;;;698.65;;
6243;SDS011;3155;49.940;8.450;2023-08-06T12:37:48;942.78;;;678.42;;
6243;SDS011;3155;49.940;8.450;2023-08-06T12:40:17;951.95;;;687.67;;
6243;SDS011;3155;49.940;8.450;2023-08-06T12:43:01;941.22;;;675.63;;
6243;SDS011;3155;49.940;8.450;2023-08-06T12:45:28;936.35;;;666.25;;
6243;SDS011;3155;49.940;8.450;2023-08-06T12:47:55;930.90;;;665.78;;
6243;SDS011;3155;49.940;8.450;2023-08-06T12:50:25;945.28;;;678.38;;
6243;SDS011;3155;49.940;8.450;2023-08-06T12:52:53;944.75;;;679.50;;
6243;SDS011;3155;49.940;8.450;2023-08-06T12:55:20;925.60;;;657.97;;
6243;SDS011;3155;49.940;8.450;2023-08-06T12:57:47;918.87;;;644.17;;
6243;SDS011;3155;49.940;8.450;2023-08-06T13:00:25;914.33;;;643.53;;
6243;SDS011;3155;49.940;8.450;2023-08-06T13:02:52;911.20;;;633.10;;
6243;SDS011;3155;49.940;8.450;2023-08-06T13:05:20;906.33;;;623.67;;
6243;SDS011;3155;49.940;8.450;2023-08-06T13:07:47;934.97;;;654.45;;
6243;SDS011;3155;49.940;8.450;2023-08-06T13:10:14;914.50;;;631.85;;
6243;SDS011;3155;49.940;8.450;2023-08-06T13:12:41;931.40;;;654.65;;
6243;SDS011;3155;49.940;8.450;2023-08-06T13:15:14;920.13;;;642.60;;
6243;SDS011;3155;49.940;8.450;2023-08-06T13:17:43;881.75;;;630.08;;
6243;SDS011;3155;49.940;8.450;2023-08-06T13:20:10;896.53;;;621.90;;
6243;SDS011;3155;49.940;8.450;2023-08-06T13:22:37;861.47;;;602.38;;
6243;SDS011;3155;49.940;8.450;2023-08-06T13:25:04;852.30;;;600.33;;
6243;SDS011;3155;49.940;8.450;2023-08-06T13:27:32;837.20;;;590.42;;
6243;SDS011;3155;49.940;8.450;2023-08-06T13:30:02;831.90;;;575.20;;
6243;SDS011;3155;49.940;8.450;2023-08-06T13:32:29;823.67;;;574.33;;
6243;SDS011;3155;49.940;8.450;2023-08-06T13:34:58;839.15;;;575.15;;
6243;SDS011;3155;49.940;8.450;2023-08-06T13:37:25;832.97;;;566.00;;
6243;SDS011;3155;49.940;8.450;2023-08-06T13:39:53;841.45;;;568.38;;
6243;SDS011;3155;49.940;8.450;2023-08-06T13:42:22;835.10;;;558.65;;
6243;SDS011;3155;49.940;8.450;2023-08-06T13:44:49;829.10;;;546.05;;
6243;SDS011;3155;49.940;8.450;2023-08-06T13:47:16;826.85;;;545.17;;
6243;SDS011;3155;49.940;8.450;2023-08-06T13:49:43;836.70;;;535.95;;
6243;SDS011;3155;49.940;8.450;2023-08-06T13:52:10;812.42;;;527.85;;
6243;SDS011;3155;49.940;8.450;2023-08-06T13:54:47;822.47;;;542.20;;
6243;SDS011;3155;49.940;8.450;2023-08-06T13:57:14;822.23;;;530.83;;
6243;SDS011;3155;49.940;8.450;2023-08-06T13:59:43;832.90;;;545.55;;
6243;SDS011;3155;49.940;8.450;2023-08-06T14:02:10;838.30;;;551.13;;
6243;SDS011;3155;49.940;8.450;2023-08-06T14:04:41;831.60;;;548.90;;
6243;SDS011;3155;49.940;8.450;2023-08-06T14:07:13;841.83;;;570.50;;
6243;SDS011;3155;49.940;8.450;2023-08-06T14:09:40;854.75;;;580.10;;
6243;SDS011;3155;49.940;8.450;2023-08-06T14:12:10;845.58;;;571.83;;
6243;SDS011;3155;49.940;8.450;2023-08-06T14:14:37;847.50;;;580.28;;
6243;SDS011;3155;49.940;8.450;2023-08-06T14:17:04;841.45;;;569.75;;
6243;SDS011;3155;49.940;8.450;2023-08-06T14:19:32;870.38;;;592.58;;
6243;SDS011;3155;49.940;8.450;2023-08-06T14:21:59;874.50;;;607.80;;
6243;SDS011;3155;49.940;8.450;2023-08-06T14:24:26;878.80;;;609.38;;
6243;SDS011;3155;49.940;8.450;2023-08-06T14:26:53;885.75;;;615.97;;
6243;SDS011;3155;49.940;8.450;2023-08-06T14:29:21;919.90;;;643.97;;
6243;SDS011;3155;49.940;8.450;2023-08-06T14:31:50;946.40;;;674.88;;
6243;SDS011;3155;49.940;8.450;2023-08-06T14:34:17;960.72;;;699.58;;
6243;SDS011;3155;49.940;8.450;2023-08-06T14:36:47;968.92;;;709.28;;
6243;SDS011;3155;49.940;8.450;2023-08-06T14:39:14;927.20;;;733.78;;
6243;SDS011;3155;49.940;8.450;2023-08-06T14:41:45;959.30;;;702.20;;